Time;durP1;ratioP1;P1;durP2;ratioP2;P2;SDS_P1;SDS_P2;PMS_P1;PMS_P2;Temp;Humidity;BMP_temperature;BMP_pressure;BME280_temperature;BME280_humidity;BME280_pressure;Samples;Min_cycle;Max_cycle;Signal;HPM_P1;HPM_P2
2023/10/03 00:01:37;;;;;;;9.18;7.05;;;;;;;12.10;100.00;63253.72;5047185;28;20214;-79
2023/10/03 00:04:08;;;;;;;15.93;7.03;;;;;;;12.08;100.00;63246.53;5050100;28;20205;-78
2023/10/03 00:06:47;;;;;;;7.82;6.80;;;;;;;12.01;100.00;63239.28;5053002;28;20196;-78
2023/10/03 00:09:19;;;;;;;11.07;7.60;;;;;;;11.95;100.00;63230.50;5049190;28;20228;-79
2023/10/03 00:11:51;;;;;;;10.43;7.43;;;;;;;11.95;100.00;63230.50;5035067;28;20277;-79
2023/10/03 00:14:21;;;;;;;16.08;8.55;;;;;;;11.94;100.00;63229.47;5048995;28;20230;-81
2023/10/03 00:16:50;;;;;;;8.65;7.43;;;;;;;11.94;100.00;63226.41;5044810;28;20202;-80
2023/10/03 00:19:20;;;;;;;8.73;7.43;;;;;;;11.91;100.00;63225.84;5042546;28;20218;-81
2023/10/03 00:21:51;;;;;;;10.40;7.75;;;;;;;11.86;100.00;63223.22;5041699;28;20206;-79
2023/10/03 00:24:21;;;;;;;11.15;7.53;;;;;;;11.86;100.00;63221.19;5039988;28;20225;-80
2023/10/03 00:26:55;;;;;;;13.52;8.05;;;;;;;11.84;100.00;63219.09;5034406;28;20186;-80
2023/10/03 00:29:40;;;;;;;13.35;8.48;;;;;;;11.90;100.00;63227.88;5032209;28;20214;-79
2023/10/03 00:32:09;;;;;;;11.65;8.73;;;;;;;11.92;100.00;63232.00;5050521;28;20193;-79
2023/10/03 00:34:40;;;;;;;15.30;9.32;;;;;;;11.97;100.00;63234.63;5054159;28;20224;-80
2023/10/03 00:37:12;;;;;;;16.23;9.57;;;;;;;11.76;100.00;63217.97;5046314;28;20195;-79
2023/10/03 00:39:41;;;;;;;12.85;8.85;;;;;;;11.96;100.00;63233.59;5033748;28;20305;-80
2023/10/03 00:42:13;;;;;;;19.40;8.93;;;;;;;11.90;100.00;63224.81;5033814;28;20192;-81
2023/10/03 00:44:50;;;;;;;13.93;7.57;;;;;;;11.89;100.00;63226.34;5032937;28;20237;-80
2023/10/03 00:47:19;;;;;;;11.95;8.15;;;;;;;11.86;100.00;63218.09;5037178;28;20202;-81
2023/10/03 00:49:52;;;;;;;17.00;7.97;;;;;;;11.83;100.00;63220.09;5033377;28;20226;-80
2023/10/03 00:52:21;;;;;;;12.15;7.78;;;;;;;11.81;100.00;63218.56;5033787;28;20202;-80
2023/10/03 00:54:51;;;;;;;12.70;8.75;;;;;;;11.75;100.00;63209.28;5033322;28;20233;-80
2023/10/03 00:57:22;;;;;;;13.23;7.95;;;;;;;11.71;100.00;63213.31;5033564;28;20191;-80
2023/10/03 00:59:53;;;;;;;11.65;8.60;;;;;;;11.69;100.00;63208.69;5041675;28;20394;-78
2023/10/03 01:02:21;;;;;;;15.07;8.90;;;;;;;11.65;100.00;63201.97;5041007;28;20198;-79
2023/10/03 01:04:49;;;;;;;10.85;7.80;;;;;;;11.63;100.00;63202.44;5028288;28;20245;-79
2023/10/03 01:07:16;;;;;;;14.80;8.07;;;;;;;11.62;100.00;63198.84;5027843;28;20199;-81
2023/10/03 01:09:43;;;;;;;15.45;9.23;;;;;;;11.64;100.00;63203.50;5028478;28;20218;-78
2023/10/03 01:12:11;;;;;;;13.88;8.63;;;;;;;11.62;100.00;63201.41;5035645;28;20232;-79
2023/10/03 01:14:39;;;;;;;10.63;8.18;;;;;;;11.59;100.00;63193.72;5029051;28;20234;-78
2023/10/03 01:17:10;;;;;;;11.52;8.00;;;;;;;11.63;100.00;63202.94;5028604;28;20203;-79
2023/10/03 01:19:40;;;;;;;16.23;9.00;;;;;;;11.73;100.00;63214.84;5037920;28;20213;-79
2023/10/03 01:22:11;;;;;;;11.13;8.38;;;;;;;11.75;100.00;63212.34;5043623;28;20201;-78
2023/10/03 01:24:40;;;;;;;11.43;8.30;;;;;;;11.78;100.00;63215.44;5030843;28;20249;-79
2023/10/03 01:27:07;;;;;;;9.93;8.85;;;;;;;11.81;100.00;63218.56;5029889;28;20191;-79
2023/10/03 01:29:34;;;;;;;12.63;8.75;;;;;;;11.82;100.00;63208.88;5039537;28;20281;-80
2023/10/03 01:32:01;;;;;;;14.18;8.45;;;;;;;11.80;100.00;63214.97;5028087;28;20534;-78
2023/10/03 01:34:29;;;;;;;13.32;8.25;;;;;;;11.81;100.00;63221.09;5027052;28;20246;-78
2023/10/03 01:36:56;;;;;;;16.00;8.60;;;;;;;11.76;100.00;63208.28;5028453;28;20364;-77
2023/10/03 01:39:24;;;;;;;11.65;8.25;;;;;;;11.75;100.00;63209.28;5029999;28;20222;-78
2023/10/03 01:41:53;;;;;;;11.07;8.07;;;;;;;11.79;100.00;63215.97;5048327;28;20300;-79
2023/10/03 01:44:20;;;;;;;14.73;7.78;;;;;;;11.61;100.00;63192.72;5048772;28;20221;-78
2023/10/03 01:46:48;;;;;;;11.18;7.95;;;;;;;11.59;100.00;63198.81;5033222;28;20206;-78
2023/10/03 01:49:16;;;;;;;16.10;7.72;;;;;;;11.58;100.00;63197.78;5042946;28;20244;-79
2023/10/03 01:51:43;;;;;;;15.88;8.85;;;;;;;11.55;100.00;63194.16;5046021;28;20240;-79
2023/10/03 01:54:11;;;;;;;10.43;7.85;;;;;;;11.52;100.00;63188.50;5051306;28;20197;-78
2023/10/03 01:56:38;;;;;;;10.82;8.05;;;;;;;11.49;100.00;63185.38;5031870;28;20202;-78
2023/10/03 01:59:07;;;;;;;11.88;7.88;;;;;;;11.46;100.00;63182.78;5036695;28;20214;-77
2023/10/03 02:01:35;;;;;;;12.98;8.13;;;;;;;11.44;100.00;63185.31;5032746;28;20254;-78
2023/10/03 02:04:02;;;;;;;9.25;7.32;;;;;;;11.39;100.00;63175.00;5031428;28;20210;-78
2023/10/03 02:06:29;;;;;;;15.60;9.07;;;;;;;11.31;100.00;63159.09;5033465;28;20205;-78
2023/10/03 02:08:58;;;;;;;16.00;8.07;;;;;;;11.34;100.00;63172.91;5037699;28;20209;-78
2023/10/03 02:11:27;;;;;;;15.48;7.55;;;;;;;11.30;100.00;63165.72;5041204;28;20233;-78
2023/10/03 02:13:54;;;;;;;8.68;7.43;;;;;;;11.35;100.00;63168.84;5041884;28;20212;-77
2023/10/03 02:16:24;;;;;;;12.38;7.75;;;;;;;11.30;100.00;63163.16;5034457;28;20499;-78
2023/10/03 02:18:52;;;;;;;10.43;8.38;;;;;;;11.32;100.00;63173.38;5030881;28;20288;-78
2023/10/03 02:21:19;;;;;;;11.05;8.10;;;;;;;11.32;100.00;63165.22;5038937;28;20578;-78
2023/10/03 02:23:47;;;;;;;11.65;8.35;;;;;;;11.33;100.00;63174.44;5039195;28;20194;-78
2023/10/03 02:26:16;;;;;;;13.23;8.50;;;;;;;11.34;100.00;63169.84;5042021;28;20245;-79
2023/10/03 02:28:43;;;;;;;10.13;7.60;;;;;;;11.34;100.00;63167.28;5051093;28;20198;-79
2023/10/03 02:31:11;;;;;;;14.48;7.82;;;;;;;11.30;100.00;63158.56;5041749;28;20284;-79
2023/10/03 02:33:43;;;;;;;13.43;7.90;;;;;;;11.26;100.00;63159.53;5032097;28;20199;-78
2023/10/03 02:36:11;;;;;;;13.23;7.80;;;;;;;11.16;100.00;63151.22;5035420;28;20439;-79
2023/10/03 02:38:38;;;;;;;15.40;8.35;;;;;;;11.11;100.00;63146.03;5052459;28;20551;-79
2023/10/03 02:41:07;;;;;;;10.77;7.78;;;;;;;11.14;100.00;63149.13;5032987;28;20465;-79
2023/10/03 02:43:36;;;;;;;14.30;7.60;;;;;;;11.07;100.00;63141.88;5037381;28;20241;-77
2023/10/03 02:46:11;;;;;;;12.02;7.20;;;;;;;11.02;100.00;63137.22;5037848;28;20459;-78
2023/10/03 02:48:41;;;;;;;17.23;8.27;;;;;;;11.03;100.00;63135.72;5035149;28;20194;-78
2023/10/03 02:51:09;;;;;;;14.77;7.38;;;;;;;11.03;100.00;63140.28;5033187;28;20231;-77
2023/10/03 02:53:37;;;;;;;10.63;8.57;;;;;;;11.01;100.00;63140.78;5045332;28;20236;-79
2023/10/03 02:56:05;;;;;;;11.00;7.95;;;;;;;10.97;100.00;63132.06;5043041;28;20518;-79
2023/10/03 02:58:32;;;;;;;8.95;7.13;;;;;;;10.95;100.00;63129.97;5051837;28;20221;-79
2023/10/03 03:00:59;;;;;;;16.45;8.27;;;;;;;10.90;100.00;63122.25;5034502;28;20362;-79
2023/10/03 03:03:30;;;;;;;10.27;7.22;;;;;;;10.88;100.00;63125.28;5033557;28;20201;-79
2023/10/03 03:06:02;;;;;;;11.27;7.60;;;;;;;10.85;100.00;63114.53;5031789;28;20211;-80
2023/10/03 03:08:30;;;;;;;14.93;8.23;;;;;;;10.74;100.00;63110.78;5032341;28;20221;-78
2023/10/03 03:11:00;;;;;;;14.93;8.52;;;;;;;10.71;100.00;63105.13;5037896;28;20454;-78
2023/10/03 03:13:31;;;;;;;16.33;9.10;;;;;;;10.76;100.00;63112.34;5036468;28;20233;-78
2023/10/03 03:16:00;;;;;;;13.15;8.18;;;;;;;10.79;100.00;63112.88;5040565;28;20265;-77
2023/10/03 03:18:31;;;;;;;16.25;8.52;;;;;;;10.81;100.00;63112.41;5032281;28;20198;-78
2023/10/03 03:21:04;;;;;;;14.38;9.40;;;;;;;10.81;100.00;63114.97;5039102;28;20215;-78
2023/10/03 03:23:35;;;;;;;19.02;11.00;;;;;;;10.77;100.00;63108.78;5032888;28;20202;-78
2023/10/03 03:26:20;;;;;;;17.33;10.80;;;;;;;10.77;100.00;63108.28;5039174;28;20443;-78
2023/10/03 03:28:49;;;;;;;10.75;8.45;;;;;;;10.76;100.00;63109.78;5036459;28;20202;-78
2023/10/03 03:31:22;;;;;;;12.30;8.43;;;;;;;10.80;100.00;63114.47;5040095;28;20260;-78
2023/10/03 03:33:52;;;;;;;10.23;8.75;;;;;;;10.76;100.00;63110.31;5030127;28;20210;-80
2023/10/03 03:36:21;;;;;;;14.65;8.95;;;;;;;10.83;100.00;63119.59;5036875;28;20266;-79
2023/10/03 03:38:51;;;;;;;13.27;9.07;;;;;;;10.82;100.00;63113.47;5030314;28;20211;-77
2023/10/03 03:41:19;;;;;;;12.75;8.68;;;;;;;10.77;100.00;63111.34;5032727;28;20205;-79
2023/10/03 03:43:48;;;;;;;13.25;9.57;;;;;;;10.73;100.00;63109.22;5028729;28;20211;-78
2023/10/03 03:46:18;;;;;;;13.30;9.38;;;;;;;10.70;100.00;63104.09;5047177;28;20254;-78
2023/10/03 03:48:45;;;;;;;19.17;9.05;;;;;;;10.65;100.00;63095.88;5047700;28;20236;-80
2023/10/03 03:51:12;;;;;;;16.85;8.93;;;;;;;10.70;100.00;63096.44;5051057;28;20237;-79
2023/10/03 03:53:43;;;;;;;11.45;8.85;;;;;;;10.71;100.00;63102.06;5051528;28;20198;-79
2023/10/03 03:56:12;;;;;;;13.70;9.35;;;;;;;10.66;100.00;63097.41;5041444;28;20219;-79
2023/10/03 03:58:44;;;;;;;11.93;9.13;;;;;;;10.69;100.00;63103.06;5047402;28;20194;-76
2023/10/03 04:01:14;;;;;;;16.63;9.32;;;;;;;10.66;100.00;63097.41;5049592;28;20221;-79
2023/10/03 04:03:42;;;;;;;14.20;9.77;;;;;;;10.68;100.00;63098.97;5040778;28;20187;-79
2023/10/03 04:06:09;;;;;;;15.48;8.85;;;;;;;10.63;100.00;63093.78;5030467;28;20231;-80
2023/10/03 04:08:36;;;;;;;15.77;9.02;;;;;;;10.61;100.00;63091.72;5044484;28;20202;-79
2023/10/03 04:11:07;;;;;;;16.20;8.98;;;;;;;10.56;100.00;63084.00;5034022;28;20297;-80
2023/10/03 04:13:38;;;;;;;13.57;8.38;;;;;;;10.58;100.00;63088.63;5033498;28;20195;-80
2023/10/03 04:16:06;;;;;;;23.13;9.32;;;;;;;10.57;100.00;63087.56;5033128;28;20229;-79
2023/10/03 04:18:37;;;;;;;16.48;8.80;;;;;;;10.55;100.00;63086.03;5030634;28;20199;-81
2023/10/03 04:21:05;;;;;;;14.75;8.27;;;;;;;10.55;100.00;63085.50;5031875;28;20206;-80
2023/10/03 04:23:32;;;;;;;15.07;8.20;;;;;;;10.55;100.00;63088.56;5036612;28;20203;-80
2023/10/03 04:26:00;;;;;;;9.10;7.57;;;;;;;10.53;100.00;63083.94;5032516;28;20219;-80
2023/10/03 04:28:29;;;;;;;10.32;7.35;;;;;;;10.47;100.00;63082.84;5045354;28;20198;-79
2023/10/03 04:30:56;;;;;;;15.02;8.20;;;;;;;10.46;100.00;63079.25;5043212;28;20249;-80
2023/10/03 04:33:24;;;;;;;9.40;7.35;;;;;;;10.54;100.00;63079.91;5050053;28;20235;-79
2023/10/03 04:35:52;;;;;;;15.48;8.13;;;;;;;10.54;100.00;63085.00;5048695;28;20218;-78
2023/10/03 04:38:19;;;;;;;12.85;6.35;;;;;;;10.50;100.00;63080.84;5031070;28;20194;-79
2023/10/03 04:40:47;;;;;;;7.78;6.95;;;;;;;10.56;100.00;63084.50;5031018;28;20293;-79
2023/10/03 04:43:14;;;;;;;16.85;8.48;;;;;;;10.57;100.00;63090.63;5031124;28;20218;-79
2023/10/03 04:45:43;;;;;;;12.80;7.10;;;;;;;10.58;100.00;63091.66;5032344;28;20215;-79
2023/10/03 04:48:12;;;;;;;8.77;7.32;;;;;;;10.62;100.00;63090.19;5049491;28;20212;-80
2023/10/03 04:50:41;;;;;;;10.32;7.88;;;;;;;10.62;100.00;63095.28;5037717;28;20547;-78
2023/10/03 04:53:14;;;;;;;9.25;7.15;;;;;;;10.64;100.00;63094.81;5029356;28;20246;-78
2023/10/03 04:55:44;;;;;;;9.50;7.13;;;;;;;10.67;100.00;63097.91;5028482;28;20237;-78
2023/10/03 04:58:12;;;;;;;11.23;6.53;;;;;;;10.68;100.00;63101.50;5031247;28;20194;-79
2023/10/03 05:00:40;;;;;;;13.32;7.75;;;;;;;10.72;100.00;63103.63;5030182;28;20250;-79
2023/10/03 05:03:09;;;;;;;9.90;7.63;;;;;;;10.76;100.00;63105.22;5030518;28;20563;-80
2023/10/03 05:05:37;;;;;;;14.00;9.88;;;;;;;10.77;100.00;63105.75;5035076;28;20221;-79
2023/10/03 05:08:05;;;;;;;19.50;10.90;;;;;;;10.90;100.00;63122.25;5048083;28;20213;-78
2023/10/03 05:10:33;;;;;;;17.55;10.07;;;;;;;10.98;100.00;63125.44;5048972;28;20236;-80
2023/10/03 05:13:01;;;;;;;13.23;9.63;;;;;;;11.05;100.00;63137.25;5049604;28;20238;-80
2023/10/03 05:15:28;;;;;;;20.02;11.23;;;;;;;11.08;100.00;63143.44;5040480;28;20218;-79
2023/10/03 05:17:55;;;;;;;14.63;10.55;;;;;;;11.18;100.00;63146.13;5041471;28;20204;-79
2023/10/03 05:20:34;;;;;;;13.13;9.85;;;;;;;11.29;100.00;63165.19;5051327;28;20277;-81
2023/10/03 05:23:03;;;;;;;15.18;8.45;;;;;;;11.39;100.00;63167.38;5048638;28;20237;-78
2023/10/03 05:25:36;;;;;;;16.65;8.95;;;;;;;11.47;100.00;63186.38;5049391;28;20221;-81
2023/10/03 05:28:05;;;;;;;14.02;7.80;;;;;;;11.58;100.00;63194.69;5030757;28;20210;-78
2023/10/03 05:30:34;;;;;;;16.70;7.97;;;;;;;11.63;100.00;63200.41;5028357;28;20226;-79
2023/10/03 05:33:01;;;;;;;10.05;7.70;;;;;;;11.54;100.00;63191.06;5030249;28;20234;-79
2023/10/03 05:35:29;;;;;;;17.63;9.40;;;;;;;11.55;100.00;63191.59;5030246;28;20222;-79
2023/10/03 05:37:57;;;;;;;15.23;8.55;;;;;;;11.56;100.00;63192.66;5029126;28;20225;-79
2023/10/03 05:40:24;;;;;;;11.88;8.63;;;;;;;11.53;100.00;63189.53;5031104;28;20222;-80
2023/10/03 05:42:51;;;;;;;16.73;11.30;;;;;;;11.76;100.00;63215.41;5047539;28;20197;-79
2023/10/03 05:45:19;;;;;;;14.43;9.18;;;;;;;11.80;100.00;63217.53;5047018;28;20221;-80
2023/10/03 05:47:49;;;;;;;12.52;8.90;;;;;;;11.82;100.00;63214.47;5050973;28;20220;-80
2023/10/03 05:50:20;;;;;;;11.45;8.35;;;;;;;11.87;100.00;63227.34;5042833;28;20289;-79
2023/10/03 05:52:49;;;;;;;13.98;8.27;;;;;;;11.89;100.00;63226.34;5030864;28;20237;-80
2023/10/03 05:55:16;;;;;;;12.07;7.95;;;;;;;11.93;100.00;63225.88;5028860;28;20223;-78
2023/10/03 05:57:44;;;;;;;11.45;8.52;;;;;;;12.10;100.00;63248.59;5028305;28;20206;-79
2023/10/03 06:00:16;;;;;;;15.95;9.20;;;;;;;12.28;100.00;63264.72;5030970;28;20210;-79
2023/10/03 06:02:43;;;;;;;11.27;9.05;;;;;;;12.40;100.00;63277.16;5031568;28;20270;-79
2023/10/03 06:05:12;;;;;;;15.35;10.02;;;;;;;12.48;100.00;63284.94;5029829;28;20265;-79
2023/10/03 06:07:41;;;;;;;17.00;9.10;;;;;;;12.53;100.00;63290.63;5030356;28;20207;-77
2023/10/03 06:10:13;;;;;;;15.90;10.05;;;;;;;12.45;100.00;63284.91;5026942;28;20329;-79
2023/10/03 06:12:40;;;;;;;17.08;9.95;;;;;;;12.52;100.00;63292.16;5028422;28;20535;-78
2023/10/03 06:15:09;;;;;;;16.98;9.23;;;;;;;12.61;100.00;63298.91;5028288;28;20234;-79
2023/10/03 06:17:36;;;;;;;17.42;9.75;;;;;;;12.52;100.00;63292.16;5029152;28;20253;-81
2023/10/03 06:20:04;;;;;;;17.35;9.43;;;;;;;12.66;100.00;63304.13;5043245;28;20256;-78
2023/10/03 06:22:32;;;;;;;16.50;8.77;;;;;;;12.77;100.00;63317.53;5049332;28;20194;-77
2023/10/03 06:25:00;;;;;;;16.27;9.25;;;;;;;12.63;100.00;63298.44;5049193;28;20272;-79
2023/10/03 06:27:29;;;;;;;14.77;8.98;;;;;;;12.78;100.00;63316.56;5049341;28;20197;-79
2023/10/03 06:29:56;;;;;;;16.45;8.43;;;;;;;12.89;100.00;63332.53;5032243;28;20593;-79
2023/10/03 06:32:23;;;;;;;15.88;8.15;;;;;;;12.97;100.00;63338.31;5048014;28;20229;-80
2023/10/03 06:34:52;;;;;;;16.15;8.20;;;;;;;13.09;100.00;63350.25;5051546;28;20218;-78
2023/10/03 06:37:19;;;;;;;9.15;7.00;;;;;;;13.27;100.00;63363.81;5035361;28;20206;-79
2023/10/03 06:39:47;;;;;;;12.77;6.75;;;;;;;13.35;100.00;63377.75;5052127;28;20218;-79
2023/10/03 06:42:14;;;;;;;9.85;7.80;;;;;;;13.41;100.00;63378.84;5053397;28;20273;-79
2023/10/03 06:44:42;;;;;;;15.38;7.88;;;;;;;13.58;100.00;63393.41;5049477;28;20210;-79
2023/10/03 06:47:10;;;;;;;9.88;7.07;;;;;;;13.72;100.00;63413.03;5033744;28;20266;-78
2023/10/03 06:49:38;;;;;;;10.43;7.40;;;;;;;13.68;100.00;63414.53;5033391;28;20249;-78
2023/10/03 06:52:06;;;;;;;12.52;6.90;;;;;;;13.74;100.00;63420.25;5034429;28;20253;-79
2023/10/03 06:54:33;;;;;;;11.25;7.38;;;;;;;13.60;100.00;63406.25;5042567;28;20218;-79
2023/10/03 06:57:00;;;;;;;14.38;8.25;;;;;;;13.62;100.00;63400.63;5049868;28;20221;-77
2023/10/03 06:59:27;;;;;;;11.38;6.88;;;;;;;13.51;100.00;63394.34;5052299;28;20218;-79
2023/10/03 07:01:56;;;;;;;10.90;7.15;;;;;;;13.55;100.00;63398.50;5038013;28;20209;-80
2023/10/03 07:04:23;;;;;;;12.23;7.35;;;;;;;13.62;100.00;63402.69;5032825;28;20222;-78
2023/10/03 07:06:53;;;;;;;17.25;7.88;;;;;;;13.76;100.00;63417.22;5034075;28;20408;-80
2023/10/03 07:09:26;;;;;;;11.90;7.40;;;;;;;13.92;100.00;63436.38;5035661;28;20261;-80
2023/10/03 07:11:54;;;;;;;13.38;7.82;;;;;;;13.87;100.00;63429.13;5032007;28;20214;-78
2023/10/03 07:14:22;;;;;;;18.13;8.77;;;;;;;13.80;100.00;63424.44;5036497;28;20226;-78
2023/10/03 07:16:49;;;;;;;10.13;7.95;;;;;;;13.78;100.00;63422.38;5053885;28;20246;-78
2023/10/03 07:19:20;;;;;;;9.40;6.55;;;;;;;14.03;100.00;63445.22;5044243;28;20234;-79
2023/10/03 07:21:48;;;;;;;12.40;7.30;;;;;;;14.14;100.00;63461.78;5033842;28;20191;-79
2023/10/03 07:24:17;;;;;;;12.40;7.95;;;;;;;14.13;100.00;63458.19;5043484;28;20514;-78
2023/10/03 07:26:44;;;;;;;9.50;7.18;;;;;;;14.17;100.00;63461.81;5051865;28;20198;-78
2023/10/03 07:29:11;;;;;;;16.27;7.63;;;;;;;14.23;99.74;63465.47;5055787;28;20221;-78
2023/10/03 07:31:39;;;;;;;11.98;7.03;;;;;;;14.15;100.00;63457.69;5053548;28;20202;-78
2023/10/03 07:34:07;;;;;;;10.43;6.68;;;;;;;14.25;99.24;63465.53;5034706;28;20238;-79
2023/10/03 07:36:36;;;;;;;12.85;8.07;;;;;;;14.32;100.00;63472.81;5031404;28;20267;-77
2023/10/03 07:39:04;;;;;;;17.42;8.50;;;;;;;14.48;99.00;63491.97;5035110;28;20205;-79
2023/10/03 07:41:31;;;;;;;12.15;7.68;;;;;;;14.45;96.97;63491.44;5033303;28;20352;-77
2023/10/03 07:43:58;;;;;;;15.32;7.88;;;;;;;14.58;95.63;63504.91;5031642;28;20234;-77
2023/10/03 07:46:26;;;;;;;14.60;8.25;;;;;;;14.62;96.38;63508.56;5042121;28;20208;-79
2023/10/03 07:48:54;;;;;;;18.17;8.50;;;;;;;14.79;95.79;63526.75;5053273;28;20370;-79
2023/10/03 07:51:25;;;;;;;15.55;9.18;;;;;;;14.88;94.85;63533.00;5036734;28;20213;-80
2023/10/03 07:53:55;;;;;;;17.27;8.90;;;;;;;15.05;95.04;63553.75;5029288;28;20234;-78
2023/10/03 07:56:29;;;;;;;17.00;10.38;;;;;;;14.98;93.20;63545.97;5035947;28;20194;-79
2023/10/03 07:59:01;;;;;;;12.48;8.68;;;;;;;15.17;90.96;63567.75;5040466;28;20236;-77
2023/10/03 08:01:29;;;;;;;18.77;10.35;;;;;;;15.02;91.79;63545.50;5037596;28;20252;-79
2023/10/03 08:03:58;;;;;;;20.15;10.07;;;;;;;15.32;90.35;63580.78;5034552;28;20210;-78
2023/10/03 08:06:33;;;;;;;17.20;10.23;;;;;;;15.28;89.97;63571.47;5035514;28;20229;-81
2023/10/03 08:09:03;;;;;;;17.02;10.07;;;;;;;15.47;88.07;63591.78;5039293;28;20198;-78
2023/10/03 08:11:31;;;;;;;17.10;9.15;;;;;;;15.52;88.24;63599.00;5038225;28;20198;-79
2023/10/03 08:13:59;;;;;;;14.68;9.50;;;;;;;15.75;87.02;63623.47;5042672;28;20225;-78
2023/10/03 08:16:28;;;;;;;16.30;9.35;;;;;;;15.67;84.05;63617.19;5032575;28;20202;-78
2023/10/03 08:18:58;;;;;;;11.50;9.68;;;;;;;15.54;85.57;63601.63;5038276;28;20202;-79
2023/10/03 08:21:27;;;;;;;13.80;8.82;;;;;;;15.57;85.96;63604.22;5042127;28;20206;-80
2023/10/03 08:23:55;;;;;;;17.35;8.60;;;;;;;15.88;85.75;63636.44;5038347;28;20193;-79
2023/10/03 08:26:25;;;;;;;15.05;8.45;;;;;;;16.14;82.76;63666.56;5034007;28;20199;-80
2023/10/03 08:28:59;;;;;;;14.93;8.90;;;;;;;16.40;80.71;63690.53;5034509;28;20209;-80
2023/10/03 08:31:27;;;;;;;11.48;9.05;;;;;;;16.70;78.68;63724.34;5035022;28;20281;-80
2023/10/03 08:33:55;;;;;;;16.92;8.85;;;;;;;16.74;76.21;63727.97;5032013;28;20225;-80
2023/10/03 08:36:23;;;;;;;12.20;8.35;;;;;;;16.72;76.73;63725.91;5038592;28;20205;-79
2023/10/03 08:38:50;;;;;;;17.63;8.48;;;;;;;16.73;74.79;63727.44;5040714;28;20208;-79
2023/10/03 08:41:25;;;;;;;20.00;8.77;;;;;;;16.78;74.12;63732.66;5040484;28;20198;-80
2023/10/03 08:43:55;;;;;;;13.13;8.32;;;;;;;17.03;73.50;63753.00;5043384;28;20208;-79
2023/10/03 08:46:29;;;;;;;15.07;7.75;;;;;;;17.12;73.99;63767.50;5036553;28;20218;-80
2023/10/03 08:49:00;;;;;;;12.80;8.07;;;;;;;17.27;72.39;63783.13;5035844;28;20257;-79
2023/10/03 08:51:32;;;;;;;14.20;7.60;;;;;;;17.23;72.52;63781.53;5036462;28;20205;-78
2023/10/03 08:54:09;;;;;;;11.07;6.88;;;;;;;17.28;70.59;63781.59;5032423;28;20538;-79
2023/10/03 08:56:39;;;;;;;10.52;7.78;;;;;;;17.19;72.33;63772.75;5033576;28;20193;-79
2023/10/03 08:59:08;;;;;;;18.33;8.40;;;;;;;17.22;70.89;63775.34;5046311;28;20216;-79
2023/10/03 09:01:38;;;;;;;13.05;8.65;;;;;;;17.26;73.55;63780.03;5036837;28;20500;-81
2023/10/03 09:04:15;;;;;;;10.88;8.32;;;;;;;17.61;73.89;63818.56;5036266;28;20224;-81
2023/10/03 09:06:43;;;;;;;9.93;7.43;;;;;;;17.88;69.06;63843.56;5035666;28;20201;-80
2023/10/03 09:09:13;;;;;;;9.77;7.38;;;;;;;18.11;67.47;63867.53;5041276;28;20201;-80
2023/10/03 09:11:43;;;;;;;12.18;7.70;;;;;;;18.21;65.63;63880.50;5034948;28;20221;-78
2023/10/03 09:14:19;;;;;;;11.73;7.88;;;;;;;17.90;66.11;63848.75;5039852;28;20587;-80
2023/10/03 09:16:50;;;;;;;12.10;7.72;;;;;;;17.93;66.57;63851.88;5037043;28;20198;-80
2023/10/03 09:19:23;;;;;;;11.57;7.63;;;;;;;17.98;65.71;63857.06;5035627;28;20240;-78
2023/10/03 09:21:52;;;;;;;8.32;6.82;;;;;;;18.09;65.00;63868.53;5037583;28;20636;-77
2023/10/03 09:24:21;;;;;;;11.68;6.75;;;;;;;18.12;66.09;63868.59;5040139;28;20280;-80
2023/10/03 09:26:54;;;;;;;12.77;7.38;;;;;;;18.22;64.46;63882.06;5032957;28;20196;-78
2023/10/03 09:29:33;;;;;;;12.30;7.32;;;;;;;18.16;65.50;63878.41;5037385;28;20398;-80
2023/10/03 09:32:07;;;;;;;10.70;7.15;;;;;;;18.23;66.89;63883.13;5035493;28;20206;-79
2023/10/03 09:34:39;;;;;;;11.23;7.35;;;;;;;18.49;65.04;63911.78;5043905;28;20229;-79
2023/10/03 09:37:08;;;;;;;9.43;6.53;;;;;;;18.77;65.74;63940.97;5035666;28;20194;-80
2023/10/03 09:39:39;;;;;;;13.43;6.93;;;;;;;18.98;60.38;63957.69;5033650;28;20285;-79
2023/10/03 09:42:15;;;;;;;16.92;7.90;;;;;;;18.95;59.51;63957.66;5035190;28;20210;-79
2023/10/03 09:44:44;;;;;;;9.85;7.85;;;;;;;18.85;60.64;63949.81;5033646;28;20224;-80
2023/10/03 09:47:13;;;;;;;13.63;7.93;;;;;;;18.86;58.90;63945.19;5041813;28;20214;-79
2023/10/03 09:49:41;;;;;;;14.43;8.05;;;;;;;18.89;60.59;63946.25;5050315;28;20228;-79
2023/10/03 09:52:09;;;;;;;13.82;8.82;;;;;;;18.88;58.98;63947.28;5035826;28;20238;-80
2023/10/03 09:54:37;;;;;;;10.93;8.07;;;;;;;18.79;59.50;63943.03;5046785;28;20233;-78
2023/10/03 09:57:16;;;;;;;10.50;7.60;;;;;;;18.72;59.12;63931.13;5049054;28;20291;-79
2023/10/03 09:59:49;;;;;;;10.88;7.88;;;;;;;18.73;59.16;63936.78;5049092;28;20225;-80
2023/10/03 10:02:19;;;;;;;12.32;7.07;;;;;;;19.01;57.42;63963.41;5052028;28;20211;-79
2023/10/03 10:04:51;;;;;;;13.35;7.35;;;;;;;18.81;57.79;63943.06;5046775;28;20244;-78
2023/10/03 10:07:29;;;;;;;10.98;6.55;;;;;;;18.92;56.82;63951.94;5050532;28;20251;-80
2023/10/03 10:10:07;;;;;;;10.32;6.72;;;;;;;18.89;57.08;63945.72;5049313;28;20213;-79
2023/10/03 10:12:37;;;;;;;10.02;6.60;;;;;;;19.06;55.14;63969.13;5035464;28;20389;-80
2023/10/03 10:15:26;;;;;;;11.52;7.50;;;;;;;19.18;55.08;63973.91;5053520;28;20250;-79
2023/10/03 10:17:56;;;;;;;12.13;6.95;;;;;;;19.17;54.86;63977.50;5047147;28;20482;-80
2023/10/03 10:20:32;;;;;;;17.55;7.30;;;;;;;19.37;54.85;64001.47;5034178;28;20222;-80
2023/10/03 10:23:20;;;;;;;8.52;6.00;;;;;;;19.65;53.69;64032.22;5036753;28;20206;-81
2023/10/03 10:25:51;;;;;;;8.23;6.28;;;;;;;19.63;52.02;64028.06;5033180;28;20268;-79
2023/10/03 10:28:26;;;;;;;13.55;6.55;;;;;;;19.49;52.54;64011.41;5035081;28;20577;-81
2023/10/03 10:31:21;;;;;;;11.52;7.45;;;;;;;19.38;54.24;63999.41;5036203;28;20284;-81
2023/10/03 10:33:49;;;;;;;7.70;6.38;;;;;;;19.41;53.22;64007.72;5043144;28;20236;-80
2023/10/03 10:36:18;;;;;;;13.77;6.70;;;;;;;19.53;54.24;64015.56;5054608;28;20280;-83
2023/10/03 10:38:53;;;;;;;13.30;7.47;;;;;;;19.75;53.47;64040.06;5053568;28;20264;-79
2023/10/03 10:41:27;;;;;;;11.65;7.15;;;;;;;19.71;54.38;64036.41;5040486;28;20198;-80
2023/10/03 10:44:13;;;;;;;9.65;7.22;;;;;;;19.92;53.73;64063.47;5034251;28;20257;-80
2023/10/03 10:46:49;;;;;;;11.18;6.70;;;;;;;20.27;53.11;64094.34;5050062;28;20224;-79
2023/10/03 10:49:52;;;;;;;13.00;6.95;;;;;;;20.49;53.51;64119.88;5036496;28;20229;-80
2023/10/03 10:52:20;;;;;;;10.15;7.35;;;;;;;20.54;53.48;64123.03;5048674;28;20198;-81
2023/10/03 10:54:47;;;;;;;9.75;7.35;;;;;;;20.58;51.31;64124.63;5053299;28;20233;-80
2023/10/03 10:57:18;;;;;;;11.32;6.75;;;;;;;20.75;50.26;64143.91;5035739;28;20201;-82
2023/10/03 10:59:46;;;;;;;6.90;6.28;;;;;;;20.41;50.36;64114.13;5051266;28;20413;-80
2023/10/03 11:02:19;;;;;;;13.85;7.10;;;;;;;20.45;50.92;64116.22;5051718;28;20197;-80
2023/10/03 11:04:54;;;;;;;7.72;6.63;;;;;;;20.38;50.37;64106.34;5046610;28;20214;-79
2023/10/03 11:07:22;;;;;;;10.32;6.95;;;;;;;20.31;50.47;64098.50;5035504;28;20227;-78
2023/10/03 11:09:50;;;;;;;8.57;7.35;;;;;;;20.06;51.33;64078.09;5052741;28;20410;-79
2023/10/03 11:12:25;;;;;;;12.05;6.85;;;;;;;20.16;51.30;64083.38;5055791;28;20273;-79
2023/10/03 11:14:54;;;;;;;8.75;7.38;;;;;;;20.41;50.70;64106.38;5049469;28;20420;-81
2023/10/03 11:17:23;;;;;;;9.38;6.65;;;;;;;20.62;50.41;64131.38;5041735;28;20256;-80
2023/10/03 11:19:50;;;;;;;11.75;7.47;;;;;;;20.83;49.47;64152.78;5032419;28;20222;-81
2023/10/03 11:22:18;;;;;;;9.27;7.05;;;;;;;20.91;48.73;64158.56;5033723;28;20228;-80
2023/10/03 11:24:51;;;;;;;8.55;7.00;;;;;;;21.10;49.45;64177.88;5034982;28;20226;-82
2023/10/03 11:27:26;;;;;;;10.00;7.03;;;;;;;21.24;48.45;64198.22;5032792;28;20221;-82
2023/10/03 11:29:53;;;;;;;9.82;6.63;;;;;;;20.89;47.93;64159.06;5041784;28;20235;-79
2023/10/03 11:32:28;;;;;;;11.65;6.57;;;;;;;20.47;48.97;64115.72;5034154;28;20190;-79
2023/10/03 11:34:57;;;;;;;8.65;6.47;;;;;;;20.29;50.13;64096.44;5037170;28;20232;-79